createdAt,value
2022-10-30T00:00:44.736Z,32.47
2022-10-30T00:03:15.937Z,23.25
2022-10-30T00:05:44.327Z,27.77
2022-10-30T00:08:12.929Z,25.25
2022-10-30T00:10:39.745Z,29.92
2022-10-30T00:13:06.404Z,26.80
2022-10-30T00:15:33.181Z,31.67
2022-10-30T00:18:00.376Z,23.40
2022-10-30T00:20:27.506Z,25.75
2022-10-30T00:22:54.175Z,29.92
2022-10-30T00:25:20.751Z,24.88
2022-10-30T00:27:47.318Z,25.73
2022-10-30T00:30:15.424Z,26.77
2022-10-30T00:32:42.904Z,25.73
2022-10-30T00:35:10.921Z,23.77
2022-10-30T00:37:37.456Z,27.20
2022-10-30T00:40:05.248Z,25.23
2022-10-30T00:42:31.886Z,30.40
2022-10-30T00:44:59.056Z,28.13
2022-10-30T00:47:30.967Z,30.40
2022-10-30T00:50:19.386Z,31.10
2022-10-30T00:53:12.969Z,36.47
2022-10-30T00:55:54.207Z,31.00
2022-10-30T00:58:30.939Z,26.00
2022-10-30T01:01:00.702Z,28.65
2022-10-30T01:03:29.183Z,34.25
2022-10-30T01:06:01.016Z,25.33
2022-10-30T01:08:27.680Z,32.85
2022-10-30T01:10:54.647Z,27.60
2022-10-30T01:13:23.676Z,28.67
2022-10-30T01:16:25.388Z,31.38
2022-10-30T01:19:01.607Z,30.73
2022-10-30T01:21:50.511Z,25.58
2022-10-30T01:24:47.085Z,29.77
2022-10-30T01:27:33.889Z,30.33
2022-10-30T01:30:03.260Z,30.25
2022-10-30T01:32:49.197Z,26.88
2022-10-30T01:35:28.414Z,28.65
2022-10-30T01:38:07.592Z,36.10
2022-10-30T01:40:34.112Z,30.05
2022-10-30T01:43:00.654Z,27.45
2022-10-30T01:45:55.420Z,24.27
2022-10-30T01:48:46.966Z,26.38
2022-10-30T01:51:41.101Z,24.95
2022-10-30T01:54:29.577Z,28.45
2022-10-30T01:57:32.540Z,29.42
2022-10-30T02:00:09.555Z,33.40
2022-10-30T02:02:36.923Z,27.00
2022-10-30T02:05:06.965Z,28.67
2022-10-30T02:07:34.092Z,31.25
2022-10-30T02:10:00.654Z,29.73
2022-10-30T02:12:28.101Z,31.50
2022-10-30T02:14:58.185Z,29.10
2022-10-30T02:17:25.549Z,29.08
2022-10-30T02:19:52.294Z,25.08
2022-10-30T02:22:18.944Z,24.88
2022-10-30T02:24:45.988Z,25.40
2022-10-30T02:27:12.578Z,25.17
2022-10-30T02:29:39.142Z,24.75
2022-10-30T02:32:05.689Z,23.75
2022-10-30T02:34:32.288Z,26.45
2022-10-30T02:36:58.863Z,27.88
2022-10-30T02:39:25.416Z,22.67
2022-10-30T02:41:51.935Z,26.25
2022-10-30T02:44:18.536Z,24.58
2022-10-30T02:46:45.175Z,27.00
2022-10-30T02:49:11.710Z,27.63
2022-10-30T02:51:38.285Z,28.13
2022-10-30T02:54:04.828Z,26.05
2022-10-30T02:56:31.337Z,29.77
2022-10-30T02:58:57.910Z,25.33
2022-10-30T03:01:24.654Z,27.75
2022-10-30T03:03:51.261Z,27.13
2022-10-30T03:06:18.051Z,25.95
2022-10-30T03:08:44.730Z,26.10
2022-10-30T03:11:14.955Z,22.92
2022-10-30T03:13:42.450Z,24.60
2022-10-30T03:16:11.513Z,23.33
2022-10-30T03:18:38.144Z,26.13
2022-10-30T03:21:06.955Z,24.55
2022-10-30T03:23:34.514Z,24.15
2022-10-30T03:26:01.175Z,24.17
2022-10-30T03:28:29.929Z,25.80
2022-10-30T03:31:04.902Z,28.95
2022-10-30T03:33:32.587Z,21.92
2022-10-30T03:36:00.026Z,28.08
2022-10-30T03:38:27.355Z,27.83
2022-10-30T03:40:54.253Z,23.15
2022-10-30T03:43:21.247Z,22.05
2022-10-30T03:45:49.832Z,22.63
2022-10-30T03:48:17.640Z,21.90
2022-10-30T03:50:44.527Z,24.23
2022-10-30T03:53:11.115Z,26.45
2022-10-30T03:55:37.889Z,23.20
2022-10-30T03:58:05.528Z,25.08
2022-10-30T04:00:33.599Z,23.38
2022-10-30T04:03:00.867Z,26.42
2022-10-30T04:05:28.644Z,23.17
2022-10-30T04:08:00.357Z,21.75
2022-10-30T04:10:27.426Z,24.77
2022-10-30T04:13:00.865Z,22.25
2022-10-30T04:15:27.828Z,21.45
2022-10-30T04:17:54.472Z,28.83
2022-10-30T04:20:23.182Z,24.13
2022-10-30T04:22:55.379Z,26.50
2022-10-30T04:25:21.942Z,24.83
2022-10-30T04:27:49.386Z,24.42
2022-10-30T04:30:15.974Z,25.65
2022-10-30T04:32:49.995Z,24.20
2022-10-30T04:35:18.672Z,23.80
2022-10-30T04:38:01.943Z,24.90
2022-10-30T04:40:30.973Z,23.92
2022-10-30T04:42:57.840Z,21.52
2022-10-30T04:45:25.219Z,24.48
2022-10-30T04:47:52.430Z,25.85
2022-10-30T04:50:19.361Z,27.20
2022-10-30T04:52:46.011Z,23.10
2022-10-30T04:55:12.602Z,25.17
2022-10-30T04:57:39.111Z,28.17
2022-10-30T05:00:07.148Z,21.75
2022-10-30T05:02:37.135Z,23.48
2022-10-30T05:05:05.167Z,27.40
2022-10-30T05:07:31.823Z,22.40
2022-10-30T05:09:58.345Z,23.30
2022-10-30T05:12:24.940Z,25.08
2022-10-30T05:14:51.512Z,24.23
2022-10-30T05:17:18.137Z,23.73
2022-10-30T05:19:44.705Z,20.25
2022-10-30T05:22:11.324Z,19.70
2022-10-30T05:24:37.831Z,22.40
2022-10-30T05:27:04.398Z,21.40
2022-10-30T05:29:31.000Z,32.45
2022-10-30T05:31:57.611Z,21.60
2022-10-30T05:34:24.180Z,27.10
2022-10-30T05:36:50.769Z,25.33
2022-10-30T05:39:17.338Z,20.48
2022-10-30T05:41:43.850Z,25.58
2022-10-30T05:44:10.460Z,20.48
2022-10-30T05:46:37.118Z,27.55
2022-10-30T05:49:04.012Z,24.38
2022-10-30T05:51:30.715Z,25.25
2022-10-30T05:53:57.273Z,25.90
2022-10-30T05:56:23.843Z,23.48
2022-10-30T05:58:50.886Z,23.92
2022-10-30T06:01:17.778Z,23.20
2022-10-30T06:03:44.954Z,19.05
2022-10-30T06:06:11.593Z,21.50
2022-10-30T06:08:38.226Z,21.63
2022-10-30T06:11:04.820Z,19.95
2022-10-30T06:13:31.405Z,25.38
2022-10-30T06:15:57.996Z,26.60
2022-10-30T06:18:24.656Z,20.38
2022-10-30T06:20:51.263Z,28.33
2022-10-30T06:23:17.825Z,25.50
2022-10-30T06:25:44.496Z,22.65
2022-10-30T06:28:11.641Z,20.85
2022-10-30T06:30:38.269Z,22.38
2022-10-30T06:33:05.722Z,22.02
2022-10-30T06:35:32.570Z,23.92
2022-10-30T06:38:02.267Z,19.80
2022-10-30T06:40:32.051Z,21.20
2022-10-30T06:42:59.024Z,23.77
2022-10-30T06:45:25.791Z,24.05
2022-10-30T06:47:52.471Z,21.73
2022-10-30T06:50:21.933Z,20.83
2022-10-30T06:52:49.548Z,23.13
2022-10-30T06:55:16.606Z,23.63
2022-10-30T06:57:43.140Z,27.50
2022-10-30T07:00:10.301Z,17.98
2022-10-30T07:02:36.783Z,23.17
2022-10-30T07:05:03.875Z,20.10
2022-10-30T07:07:32.399Z,21.42
2022-10-30T07:09:58.917Z,22.73
2022-10-30T07:12:25.483Z,21.77
2022-10-30T07:14:52.180Z,20.23
2022-10-30T07:17:18.723Z,21.92
2022-10-30T07:19:45.269Z,22.13
2022-10-30T07:22:11.787Z,19.85
2022-10-30T07:24:38.278Z,19.17
2022-10-30T07:27:04.855Z,17.33
2022-10-30T07:29:31.352Z,23.67
2022-10-30T07:32:02.685Z,22.10
2022-10-30T07:34:29.914Z,19.08
2022-10-30T07:36:56.450Z,21.55
2022-10-30T07:39:23.017Z,21.80
2022-10-30T07:41:50.652Z,15.32
2022-10-30T07:44:17.849Z,25.92
2022-10-30T07:46:44.382Z,20.27
2022-10-30T07:49:11.017Z,23.60
2022-10-30T07:51:37.543Z,19.90
2022-10-30T07:54:04.115Z,20.40
2022-10-30T07:56:30.631Z,21.35
2022-10-30T07:58:57.136Z,20.17
2022-10-30T08:01:23.758Z,20.17
2022-10-30T08:03:50.427Z,19.52
2022-10-30T08:06:20.067Z,18.15
2022-10-30T08:08:49.626Z,18.90
2022-10-30T08:11:16.106Z,15.00
2022-10-30T08:13:42.741Z,19.63
2022-10-30T08:16:09.250Z,19.35
2022-10-30T08:18:35.813Z,21.67
2022-10-30T08:21:02.428Z,17.05
2022-10-30T08:23:29.019Z,17.23
2022-10-30T08:26:00.371Z,17.50
2022-10-30T08:28:31.595Z,18.60
2022-10-30T08:31:00.768Z,17.48
2022-10-30T08:33:27.402Z,17.63
2022-10-30T08:35:59.254Z,20.92
2022-10-30T08:38:27.092Z,17.00
2022-10-30T08:40:53.891Z,20.02
2022-10-30T08:43:20.777Z,19.70
2022-10-30T08:45:47.280Z,18.10
2022-10-30T08:48:15.815Z,19.17
2022-10-30T08:50:42.453Z,21.67
2022-10-30T08:53:12.087Z,18.75
2022-10-30T08:55:38.695Z,19.87
2022-10-30T08:58:05.233Z,18.55
2022-10-30T09:00:31.984Z,25.45
2022-10-30T09:02:58.831Z,23.13
2022-10-30T09:05:25.712Z,24.77
2022-10-30T09:07:57.040Z,24.08
2022-10-30T09:10:23.900Z,22.65
2022-10-30T09:13:00.230Z,25.30
2022-10-30T09:15:27.167Z,21.67
2022-10-30T09:18:02.176Z,19.38
2022-10-30T09:20:30.320Z,23.15
2022-10-30T09:22:57.336Z,18.42
2022-10-30T09:25:24.279Z,20.05
2022-10-30T09:27:50.929Z,19.67
2022-10-30T09:30:17.475Z,20.80
2022-10-30T09:32:44.089Z,21.52
2022-10-30T09:35:10.766Z,19.13
2022-10-30T09:37:38.092Z,27.58
2022-10-30T09:40:09.672Z,31.08
2022-10-30T09:42:47.265Z,27.00
2022-10-30T09:45:33.002Z,24.15
2022-10-30T09:48:14.798Z,25.98
2022-10-30T09:50:59.459Z,21.40
2022-10-30T09:53:32.598Z,30.30
2022-10-30T09:56:15.462Z,28.08
2022-10-30T09:58:54.443Z,28.80
2022-10-30T10:01:32.883Z,23.15
2022-10-30T10:04:21.053Z,22.95
2022-10-30T10:06:57.115Z,23.65
2022-10-30T10:09:26.556Z,23.63
2022-10-30T10:12:02.418Z,25.10
2022-10-30T10:14:34.772Z,24.55
2022-10-30T10:17:04.796Z,22.08
2022-10-30T10:19:55.704Z,23.75
2022-10-30T10:22:50.546Z,23.30
2022-10-30T10:25:21.010Z,22.52
2022-10-30T10:30:24.414Z,23.85
2022-10-30T10:33:15.838Z,19.92
2022-10-30T10:35:58.937Z,17.35
2022-10-30T10:38:34.471Z,19.92
2022-10-30T10:41:32.286Z,18.08
2022-10-30T10:44:01.719Z,23.15
2022-10-30T10:46:53.680Z,20.55
2022-10-30T10:49:39.142Z,19.77
2022-10-30T10:52:16.801Z,21.63
2022-10-30T10:54:52.579Z,18.98
2022-10-30T10:57:34.555Z,15.95
2022-10-30T11:00:04.935Z,17.08
2022-10-30T11:05:17.244Z,16.45
2022-10-30T11:07:49.370Z,17.05
2022-10-30T11:10:18.876Z,23.85
2022-10-30T11:12:45.660Z,17.70
2022-10-30T11:15:37.015Z,19.60
2022-10-30T11:18:10.106Z,19.88
2022-10-30T11:21:04.953Z,18.70
2022-10-30T11:23:33.285Z,16.63
2022-10-30T11:26:01.410Z,14.43
2022-10-30T11:28:48.700Z,17.48
2022-10-30T11:31:27.608Z,12.02
2022-10-30T11:33:54.726Z,15.30
2022-10-30T11:36:25.894Z,17.17
2022-10-30T11:38:57.233Z,15.52
2022-10-30T11:41:25.517Z,16.42
2022-10-30T11:43:52.387Z,11.70
2022-10-30T11:46:23.685Z,18.13
2022-10-30T11:48:55.219Z,15.63
2022-10-30T11:51:50.943Z,15.50
2022-10-30T11:54:21.493Z,17.42
2022-10-30T11:56:52.166Z,11.85
2022-10-30T11:59:21.483Z,13.05
2022-10-30T12:02:00.098Z,13.95
2022-10-30T12:04:29.233Z,14.82
2022-10-30T12:07:10.238Z,9.48
2022-10-30T12:09:48.922Z,11.65
2022-10-30T12:12:32.958Z,11.98
2022-10-30T12:15:26.818Z,14.02
2022-10-30T12:18:01.738Z,10.30
2022-10-30T12:20:29.423Z,11.25
2022-10-30T12:22:56.373Z,12.35
2022-10-30T12:25:30.170Z,11.57
2022-10-30T12:28:00.747Z,9.30
2022-10-30T12:30:31.084Z,12.15
2022-10-30T12:35:37.118Z,15.15
2022-10-30T12:38:18.458Z,12.32
2022-10-30T12:41:00.193Z,11.10
2022-10-30T12:43:27.508Z,12.48
2022-10-30T12:46:16.337Z,10.57
2022-10-30T12:48:55.099Z,12.38
2022-10-30T12:51:31.312Z,9.77
2022-10-30T12:54:09.414Z,13.90
2022-10-30T12:56:44.056Z,13.05
2022-10-30T12:59:42.502Z,13.55
2022-10-30T13:02:24.110Z,13.65
2022-10-30T13:04:55.592Z,14.55
2022-10-30T13:07:35.806Z,13.60
2022-10-30T13:10:13.275Z,12.77
2022-10-30T13:12:44.782Z,13.13
2022-10-30T13:15:29.142Z,10.90
2022-10-30T13:18:06.729Z,8.80
2022-10-30T13:20:34.637Z,13.43
2022-10-30T13:23:11.559Z,13.68
2022-10-30T13:25:59.286Z,10.60
2022-10-30T13:28:31.445Z,11.55
2022-10-30T13:31:17.946Z,10.57
2022-10-30T13:33:56.321Z,10.02
2022-10-30T13:36:39.068Z,9.75
2022-10-30T13:39:30.802Z,9.43
2022-10-30T13:42:09.166Z,8.68
2022-10-30T13:44:50.730Z,7.85
2022-10-30T13:47:34.412Z,11.10
2022-10-30T13:50:25.777Z,8.18
2022-10-30T13:52:57.664Z,7.82
2022-10-30T13:55:34.727Z,10.15
2022-10-30T13:58:10.464Z,11.13
2022-10-30T14:01:07.828Z,7.75
2022-10-30T14:03:44.236Z,12.32
2022-10-30T14:06:24.806Z,10.02
2022-10-30T14:09:15.424Z,11.13
2022-10-30T14:11:42.194Z,9.25
2022-10-30T14:14:28.324Z,10.68
2022-10-30T14:17:24.196Z,10.20
2022-10-30T14:20:12.150Z,13.27
2022-10-30T14:22:41.073Z,11.88
2022-10-30T14:25:15.351Z,9.57
2022-10-30T14:27:42.549Z,14.85
2022-10-30T14:30:19.617Z,8.95
2022-10-30T14:32:52.588Z,13.88
2022-10-30T14:35:37.406Z,10.10
2022-10-30T14:38:06.558Z,10.13
2022-10-30T14:40:40.289Z,9.98
2022-10-30T14:43:27.705Z,14.52
2022-10-30T14:46:01.750Z,10.85
2022-10-30T14:48:56.157Z,15.15
2022-10-30T14:51:35.249Z,13.68
2022-10-30T14:54:22.859Z,14.05
2022-10-30T14:56:54.104Z,10.35
2022-10-30T14:59:30.279Z,11.82
2022-10-30T15:02:15.309Z,13.52
2022-10-30T15:05:08.575Z,9.95
2022-10-30T15:07:56.113Z,11.13
2022-10-30T15:10:31.409Z,10.38
2022-10-30T15:13:06.606Z,9.43
2022-10-30T15:15:33.996Z,12.35
2022-10-30T15:18:08.588Z,10.10
2022-10-30T15:20:37.990Z,11.80
2022-10-30T15:23:09.730Z,22.30
2022-10-30T15:25:44.170Z,13.15
2022-10-30T15:28:17.527Z,15.57
2022-10-30T15:31:05.679Z,17.63
2022-10-30T15:33:37.195Z,14.43
2022-10-30T15:36:05.309Z,13.38
2022-10-30T15:38:31.838Z,12.52
2022-10-30T15:41:01.772Z,14.00
2022-10-30T15:43:35.305Z,14.43
2022-10-30T15:46:08.491Z,10.80
2022-10-30T15:48:37.129Z,12.75
2022-10-30T15:51:11.986Z,13.02
2022-10-30T15:53:45.608Z,15.13
2022-10-30T15:56:25.268Z,16.40
2022-10-30T15:58:57.456Z,13.15
2022-10-30T16:01:31.700Z,13.00
2022-10-30T16:03:58.759Z,22.00
2022-10-30T16:06:28.486Z,13.02
2022-10-30T16:08:55.312Z,14.95
2022-10-30T16:11:23.391Z,15.85
2022-10-30T16:13:50.630Z,13.00
2022-10-30T16:16:27.479Z,14.57
2022-10-30T16:18:59.438Z,14.18
2022-10-30T16:21:29.696Z,11.13
2022-10-30T16:23:58.488Z,15.95
2022-10-30T16:26:26.719Z,16.20
2022-10-30T16:28:53.363Z,11.57
2022-10-30T16:31:20.602Z,11.23
2022-10-30T16:33:47.932Z,13.10
2022-10-30T16:36:17.097Z,13.45
2022-10-30T16:38:47.632Z,14.70
2022-10-30T16:43:44.671Z,13.73
2022-10-30T16:48:37.958Z,17.10
2022-10-30T16:51:05.014Z,13.68
2022-10-30T16:53:32.452Z,17.00
2022-10-30T16:55:59.828Z,16.70
2022-10-30T16:58:31.677Z,15.00
2022-10-30T17:01:07.429Z,15.57
2022-10-30T17:03:39.151Z,14.77
2022-10-30T17:06:24.616Z,13.43
2022-10-30T17:08:53.919Z,12.65
2022-10-30T17:11:34.475Z,14.52
2022-10-30T17:16:35.797Z,16.05
2022-10-30T17:19:31.375Z,15.98
2022-10-30T17:22:09.958Z,20.00
2022-10-30T17:24:38.515Z,13.57
2022-10-30T17:27:07.885Z,18.65
2022-10-30T17:29:37.494Z,18.92
2022-10-30T17:32:06.370Z,18.33
2022-10-30T17:34:38.687Z,15.50
2022-10-30T17:37:05.390Z,18.05
2022-10-30T17:39:31.916Z,21.95
2022-10-30T17:41:58.407Z,23.13
2022-10-30T17:44:26.132Z,25.08
2022-10-30T17:46:52.747Z,21.75
2022-10-30T17:49:30.995Z,17.83
2022-10-30T17:51:58.177Z,20.52
2022-10-30T17:54:25.248Z,19.88
2022-10-30T17:56:52.672Z,23.40
2022-10-30T17:59:19.296Z,21.95
2022-10-30T18:01:45.966Z,21.23
2022-10-30T18:04:20.839Z,20.58
2022-10-30T18:06:48.549Z,23.77
2022-10-30T18:09:15.391Z,27.23
2022-10-30T18:11:41.910Z,38.47
2022-10-30T18:14:10.503Z,33.20
2022-10-30T18:16:37.049Z,30.58
2022-10-30T18:19:03.640Z,24.92
2022-10-30T18:21:31.343Z,37.58
2022-10-30T18:23:58.056Z,29.42
2022-10-30T18:26:26.558Z,33.10
2022-10-30T18:28:53.687Z,30.23
2022-10-30T18:31:23.100Z,24.42
2022-10-30T18:33:50.172Z,24.95
2022-10-30T18:36:22.296Z,27.23
2022-10-30T18:38:49.424Z,26.67
2022-10-30T18:41:20.475Z,26.40
2022-10-30T18:43:47.494Z,27.60
2022-10-30T18:46:15.226Z,29.02
2022-10-30T18:48:41.911Z,22.42
2022-10-30T18:51:21.581Z,24.80
2022-10-30T18:53:52.083Z,27.93
2022-10-30T18:56:26.908Z,31.83
2022-10-30T18:58:58.459Z,28.90
2022-10-30T19:01:28.446Z,25.83
2022-10-30T19:03:55.096Z,24.83
2022-10-30T19:06:24.070Z,25.73
2022-10-30T19:08:50.924Z,27.45
2022-10-30T19:11:24.456Z,36.00
2022-10-30T19:13:53.032Z,33.90
2022-10-30T19:16:21.040Z,31.25
2022-10-30T19:18:48.592Z,34.58
2022-10-30T19:21:21.689Z,32.08
2022-10-30T19:23:48.578Z,28.88
2022-10-30T19:26:17.275Z,33.45
2022-10-30T19:28:44.979Z,28.75
2022-10-30T19:31:14.731Z,31.40
2022-10-30T19:33:41.697Z,31.35
2022-10-30T19:36:29.792Z,33.35
2022-10-30T19:38:56.702Z,32.42
2022-10-30T19:41:25.135Z,27.58
2022-10-30T19:43:52.691Z,36.90
2022-10-30T19:46:19.585Z,27.98
2022-10-30T19:49:01.604Z,28.92
2022-10-30T19:51:28.909Z,25.80
2022-10-30T19:53:56.027Z,25.58
2022-10-30T19:56:22.953Z,27.20
2022-10-30T19:58:50.115Z,25.13
2022-10-30T20:01:17.317Z,25.00
2022-10-30T20:03:44.022Z,26.20
2022-10-30T20:06:14.281Z,27.23
2022-10-30T20:08:41.272Z,26.90
2022-10-30T20:11:08.159Z,30.70
2022-10-30T20:13:34.741Z,30.48
2022-10-30T20:16:04.899Z,26.00
2022-10-30T20:21:01.614Z,32.72
2022-10-30T20:23:28.476Z,31.90
2022-10-30T20:26:02.727Z,31.80
2022-10-30T20:28:31.358Z,31.33
2022-10-30T20:30:58.010Z,30.15
2022-10-30T20:33:26.453Z,37.55
2022-10-30T20:35:54.779Z,27.80
2022-10-30T20:38:26.503Z,33.85
2022-10-30T20:40:53.551Z,35.25
2022-10-30T20:43:25.023Z,40.45
2022-10-30T20:45:51.627Z,39.17
2022-10-30T20:48:18.311Z,44.05
2022-10-30T20:50:50.298Z,35.72
2022-10-30T20:53:17.361Z,35.15
2022-10-30T20:55:45.467Z,32.53
2022-10-30T20:58:13.449Z,30.83
2022-10-30T21:00:40.238Z,34.50
2022-10-30T21:03:08.196Z,38.55
2022-10-30T21:05:45.011Z,34.28
2022-10-30T21:08:13.886Z,33.75
2022-10-30T21:10:41.370Z,29.95
2022-10-30T21:13:09.808Z,33.33
2022-10-30T21:15:42.469Z,34.95
2022-10-30T21:18:10.728Z,32.00
2022-10-30T21:20:37.462Z,30.27
2022-10-30T21:23:04.876Z,29.70
2022-10-30T21:25:32.473Z,28.92
2022-10-30T21:27:59.792Z,26.27
2022-10-30T21:30:26.428Z,29.17
2022-10-30T21:32:53.042Z,25.83
2022-10-30T21:35:20.434Z,24.38
2022-10-30T21:37:47.063Z,25.58
2022-10-30T21:40:13.605Z,22.33
2022-10-30T21:42:40.168Z,23.77
2022-10-30T21:45:07.342Z,26.13
2022-10-30T21:47:33.978Z,24.30
2022-10-30T21:50:00.568Z,28.50
2022-10-30T21:52:27.197Z,27.60
2022-10-30T21:54:53.780Z,27.48
2022-10-30T21:57:20.356Z,27.70
2022-10-30T22:00:01.791Z,26.35
2022-10-30T22:02:32.868Z,30.83
2022-10-30T22:04:59.448Z,28.10
2022-10-30T22:07:26.059Z,25.88
2022-10-30T22:09:53.581Z,32.30
2022-10-30T22:12:20.166Z,25.67
2022-10-30T22:14:46.788Z,29.17
2022-10-30T22:17:13.290Z,28.40
2022-10-30T22:19:39.907Z,30.48
2022-10-30T22:22:06.942Z,38.40
2022-10-30T22:24:33.664Z,34.03
2022-10-30T22:27:00.382Z,32.20
2022-10-30T22:29:27.142Z,32.63
2022-10-30T22:31:53.719Z,27.45
2022-10-30T22:34:20.373Z,31.33
2022-10-30T22:36:47.030Z,31.27
2022-10-30T22:39:14.320Z,30.58
2022-10-30T22:41:41.619Z,37.42
2022-10-30T22:44:12.531Z,33.53
2022-10-30T22:46:39.575Z,33.00
2022-10-30T22:49:07.133Z,33.38
2022-10-30T22:51:35.246Z,36.22
2022-10-30T22:54:04.039Z,32.20
2022-10-30T22:56:35.618Z,31.80
2022-10-30T22:59:07.749Z,33.05
2022-10-30T23:01:36.548Z,31.17
2022-10-30T23:04:04.869Z,33.03
2022-10-30T23:06:33.408Z,31.02
2022-10-30T23:09:01.584Z,34.78
2022-10-30T23:11:29.237Z,34.72
2022-10-30T23:13:56.330Z,34.78
2022-10-30T23:16:24.475Z,34.75
2022-10-30T23:18:51.818Z,35.20
2022-10-30T23:21:21.810Z,31.02
2022-10-30T23:23:48.774Z,33.05
2022-10-30T23:26:21.907Z,33.38
2022-10-30T23:28:49.950Z,29.67
2022-10-30T23:31:29.981Z,32.85
2022-10-30T23:33:59.155Z,25.48
2022-10-30T23:36:26.078Z,29.50
2022-10-30T23:38:54.436Z,27.23
2022-10-30T23:41:22.490Z,26.80
2022-10-30T23:43:52.772Z,31.90
2022-10-30T23:46:19.277Z,26.90
2022-10-30T23:48:45.801Z,30.30
2022-10-30T23:51:12.419Z,37.20
2022-10-30T23:53:38.931Z,30.92
2022-10-30T23:56:05.910Z,36.28
2022-10-30T23:58:32.739Z,27.95
